Time;durP1;ratioP1;P1;durP2;ratioP2;P2;SDS_P1;SDS_P2;PMS_P1;PMS_P2;Temp;Humidity;BMP_temperature;BMP_pressure;BME280_temperature;BME280_humidity;BME280_pressure;Samples;Min_cycle;Max_cycle;Signal;HPM_P1;HPM_P2
2023/10/20 00:01:17;;;;;;;;;;;13.20;98.00;;;;;;5114080;27;20387;-70
2023/10/20 00:03:42;;;;;;;;;;;13.20;97.90;;;;;;5109661;28;19915;-70
2023/10/20 00:06:08;;;;;;;;;;;13.30;97.90;;;;;;5109588;28;19915;-70
2023/10/20 00:08:34;;;;;;;;;;;13.20;97.90;;;;;;5119598;27;19919;-70
2023/10/20 00:11:03;;;;;;;;;;;13.20;97.90;;;;;;5113379;28;19912;-70
2023/10/20 00:13:29;;;;;;;;;;;13.20;97.90;;;;;;5112926;28;20390;-70
2023/10/20 00:15:55;;;;;;;;;;;13.30;98.00;;;;;;5112826;28;20023;-70
2023/10/20 00:18:20;;;;;;;;;;;13.20;98.00;;;;;;5113026;28;19908;-70
2023/10/20 00:20:46;;;;;;;;;;;13.20;97.90;;;;;;5113023;28;19908;-70
2023/10/20 00:23:14;;;;;;;;;;;13.30;98.00;;;;;;5112366;28;19919;-70
2023/10/20 00:25:40;;;;;;;;;;;13.20;97.90;;;;;;5121575;27;19915;-70
2023/10/20 00:28:05;;;;;;;;;;;13.20;97.90;;;;;;5120424;27;19965;-70
2023/10/20 00:30:31;;;;;;;;;;;13.20;98.00;;;;;;5116688;27;19911;-70
2023/10/20 00:32:56;;;;;;;;;;;13.20;98.00;;;;;;5112563;28;19908;-70
2023/10/20 00:35:22;;;;;;;;;;;13.20;98.00;;;;;;5112913;28;19908;-70
2023/10/20 00:37:48;;;;;;;;;;;13.20;98.00;;;;;;5112705;28;19912;-70
2023/10/20 00:40:14;;;;;;;;;;;13.20;98.00;;;;;;5112648;28;20018;-70
2023/10/20 00:42:39;;;;;;;;;;;13.20;98.00;;;;;;5112619;28;19916;-70
2023/10/20 00:45:06;;;;;;;;;;;13.20;98.00;;;;;;5121130;27;19912;-70
2023/10/20 00:47:32;;;;;;;;;;;13.20;98.00;;;;;;5112237;27;19959;-70
2023/10/20 00:49:58;;;;;;;;;;;13.20;98.00;;;;;;5112444;28;20406;-70
2023/10/20 00:52:25;;;;;;;;;;;13.20;98.00;;;;;;5110724;28;19911;-70
2023/10/20 00:54:50;;;;;;;;;;;13.20;98.00;;;;;;5108892;28;19912;-70
2023/10/20 00:57:17;;;;;;;;;;;13.20;98.00;;;;;;5111869;28;19919;-70
2023/10/20 00:59:43;;;;;;;;;;;13.20;98.00;;;;;;5112829;27;19919;-70
2023/10/20 01:02:09;;;;;;;;;;;13.20;98.00;;;;;;5116215;27;19919;-70
2023/10/20 01:04:34;;;;;;;;;;;13.20;98.00;;;;;;5111996;28;19921;-70
2023/10/20 01:07:00;;;;;;;;;;;13.20;98.10;;;;;;5111843;28;20341;-70
2023/10/20 01:09:26;;;;;;;;;;;13.20;98.00;;;;;;5111593;28;19964;-70
2023/10/20 01:11:52;;;;;;;;;;;13.20;98.00;;;;;;5112240;28;19908;-70
2023/10/20 01:14:17;;;;;;;;;;;13.20;98.00;;;;;;5111908;27;19932;-70
2023/10/20 01:16:43;;;;;;;;;;;13.20;97.90;;;;;;5114357;27;19916;-70
2023/10/20 01:19:08;;;;;;;;;;;13.20;97.90;;;;;;5109571;28;20420;-70
2023/10/20 01:21:34;;;;;;;;;;;13.20;98.00;;;;;;5109759;28;19919;-70
2023/10/20 01:24:02;;;;;;;;;;;13.20;98.00;;;;;;5111583;28;19912;-70
2023/10/20 01:26:29;;;;;;;;;;;13.20;98.00;;;;;;5119981;27;19951;-70
2023/10/20 01:28:55;;;;;;;;;;;13.20;98.00;;;;;;5109991;28;20451;-70
2023/10/20 01:31:20;;;;;;;;;;;13.20;98.00;;;;;;5116098;27;20003;-70
2023/10/20 01:33:46;;;;;;;;;;;13.20;98.00;;;;;;5111342;28;19907;-70
2023/10/20 01:36:11;;;;;;;;;;;13.20;98.00;;;;;;5111539;28;20436;-70
2023/10/20 01:38:37;;;;;;;;;;;13.20;98.00;;;;;;5110745;27;19908;-70
2023/10/20 01:41:02;;;;;;;;;;;13.20;98.00;;;;;;5111114;28;19908;-70
2023/10/20 01:43:28;;;;;;;;;;;13.20;98.00;;;;;;5110744;28;19911;-70
2023/10/20 01:45:54;;;;;;;;;;;13.20;98.00;;;;;;5117543;27;19908;-70
2023/10/20 01:48:20;;;;;;;;;;;13.20;98.00;;;;;;5108198;28;19918;-70
2023/10/20 01:50:45;;;;;;;;;;;13.20;97.90;;;;;;5111361;28;19912;-70
2023/10/20 01:53:11;;;;;;;;;;;13.20;98.00;;;;;;5107793;28;19912;-70
2023/10/20 01:55:39;;;;;;;;;;;13.20;98.00;;;;;;5121127;27;19908;-70
2023/10/20 01:58:05;;;;;;;;;;;13.20;98.00;;;;;;5115343;27;19915;-70
2023/10/20 02:00:31;;;;;;;;;;;13.20;97.90;;;;;;5114452;27;19915;-70
2023/10/20 02:02:56;;;;;;;;;;;13.20;97.90;;;;;;5110665;28;19915;-70
2023/10/20 02:05:22;;;;;;;;;;;13.20;97.90;;;;;;5111825;27;19908;-70
2023/10/20 02:07:48;;;;;;;;;;;13.20;97.90;;;;;;5117599;27;19973;-70
2023/10/20 02:10:14;;;;;;;;;;;13.20;97.90;;;;;;5110436;28;19965;-70
2023/10/20 02:12:41;;;;;;;;;;;13.20;97.90;;;;;;5110229;28;20002;-70
2023/10/20 02:15:07;;;;;;;;;;;13.20;97.90;;;;;;5108638;28;19912;-70
2023/10/20 02:17:36;;;;;;;;;;;13.20;97.90;;;;;;5107866;28;19926;-70
2023/10/20 02:20:02;;;;;;;;;;;13.20;97.90;;;;;;5110111;28;19948;-70
2023/10/20 02:22:28;;;;;;;;;;;13.20;97.90;;;;;;5108131;28;20410;-70
2023/10/20 02:24:53;;;;;;;;;;;13.20;97.90;;;;;;5110328;27;19943;-70
2023/10/20 02:27:19;;;;;;;;;;;13.20;97.90;;;;;;5116943;27;19912;-70
2023/10/20 02:29:45;;;;;;;;;;;13.20;97.90;;;;;;5111229;28;20292;-70
2023/10/20 02:32:12;;;;;;;;;;;13.20;97.90;;;;;;5114251;27;19918;-70
2023/10/20 02:34:37;;;;;;;;;;;13.20;97.90;;;;;;5109746;28;20391;-70
2023/10/20 02:37:03;;;;;;;;;;;13.20;98.00;;;;;;5109967;28;19912;-70
2023/10/20 02:39:28;;;;;;;;;;;13.20;98.00;;;;;;5109805;28;19956;-70
2023/10/20 02:41:54;;;;;;;;;;;13.20;97.90;;;;;;5108884;28;19918;-70
2023/10/20 02:44:21;;;;;;;;;;;13.20;98.00;;;;;;5108154;28;19976;-70
2023/10/20 02:46:47;;;;;;;;;;;13.20;97.90;;;;;;5110004;28;20007;-70
2023/10/20 02:49:12;;;;;;;;;;;13.20;98.00;;;;;;5118270;27;20242;-70
2023/10/20 02:51:38;;;;;;;;;;;13.20;98.00;;;;;;5113239;27;19919;-70
2023/10/20 02:54:04;;;;;;;;;;;13.20;98.00;;;;;;5120133;27;20035;-70
2023/10/20 02:56:30;;;;;;;;;;;13.20;97.90;;;;;;5110752;27;20002;-70
2023/10/20 02:58:56;;;;;;;;;;;13.20;98.00;;;;;;5109680;28;19998;-70
2023/10/20 03:01:21;;;;;;;;;;;13.20;98.00;;;;;;5109539;28;20306;-70
2023/10/20 03:03:47;;;;;;;;;;;13.20;98.00;;;;;;5109725;28;19908;-70
2023/10/20 03:06:12;;;;;;;;;;;13.20;98.00;;;;;;5109871;28;20575;-70
2023/10/20 03:08:38;;;;;;;;;;;13.20;97.90;;;;;;5112073;27;20507;-70
2023/10/20 03:11:04;;;;;;;;;;;13.20;97.90;;;;;;5108346;28;19912;-70
2023/10/20 03:13:30;;;;;;;;;;;13.20;98.00;;;;;;5109505;28;20273;-70
2023/10/20 03:15:56;;;;;;;;;;;13.20;98.00;;;;;;5109409;28;19908;-70
2023/10/20 03:18:23;;;;;;;;;;;13.20;98.00;;;;;;5109091;28;19915;-70
2023/10/20 03:20:49;;;;;;;;;;;13.20;97.90;;;;;;5109546;28;19923;-70
2023/10/20 03:23:15;;;;;;;;;;;13.20;98.00;;;;;;5109288;28;19908;-70
2023/10/20 03:25:41;;;;;;;;;;;13.20;98.00;;;;;;5109721;28;19912;-70
2023/10/20 03:28:07;;;;;;;;;;;13.20;98.00;;;;;;5107902;28;19914;-70
2023/10/20 03:30:38;;;;;;;;;;;13.20;97.90;;;;;;5113016;27;19911;-70
2023/10/20 03:33:05;;;;;;;;;;;13.20;97.90;;;;;;5109645;28;20002;-70
2023/10/20 03:35:30;;;;;;;;;;;13.20;97.90;;;;;;5108117;28;20010;-70
2023/10/20 03:37:58;;;;;;;;;;;13.20;97.90;;;;;;5109082;28;20015;-70
2023/10/20 03:40:25;;;;;;;;;;;13.20;98.00;;;;;;5109342;28;19917;-70
2023/10/20 03:42:51;;;;;;;;;;;13.20;97.90;;;;;;5110247;28;20322;-70
2023/10/20 03:45:16;;;;;;;;;;;13.20;98.00;;;;;;5113429;28;20007;-70
2023/10/20 03:47:43;;;;;;;;;;;13.20;98.00;;;;;;5111999;28;19935;-70
2023/10/20 03:50:15;;;;;;;;;;;13.20;98.00;;;;;;5122045;27;19953;-70
2023/10/20 03:52:41;;;;;;;;;;;13.20;98.00;;;;;;5103733;28;19930;-70
2023/10/20 03:55:08;;;;;;;;;;;13.20;98.10;;;;;;5111737;28;20345;-70
2023/10/20 03:57:34;;;;;;;;;;;13.20;98.10;;;;;;5111284;28;19916;-70
2023/10/20 04:00:14;;;;;;;;;;;13.20;98.00;;;;;;5115112;27;20429;-70
2023/10/20 04:02:40;;;;;;;;;;;13.20;98.00;;;;;;5103242;27;19957;-70
2023/10/20 04:05:06;;;;;;;;;;;13.20;98.00;;;;;;5113512;27;19911;-70
2023/10/20 04:07:32;;;;;;;;;;;13.20;98.00;;;;;;5112838;27;19954;-70
2023/10/20 04:09:59;;;;;;;;;;;13.20;98.10;;;;;;5111728;28;19994;-70
2023/10/20 04:12:27;;;;;;;;;;;13.20;97.90;;;;;;5112765;28;19911;-70
2023/10/20 04:14:55;;;;;;;;;;;13.20;97.90;;;;;;5111700;28;19908;-70
2023/10/20 04:17:21;;;;;;;;;;;13.20;98.00;;;;;;5112760;28;19994;-70
2023/10/20 04:19:47;;;;;;;;;;;13.20;98.00;;;;;;5112981;28;20007;-70
2023/10/20 04:22:13;;;;;;;;;;;13.20;97.90;;;;;;5112796;27;19959;-70
2023/10/20 04:24:39;;;;;;;;;;;13.20;98.00;;;;;;5111056;28;19968;-70
2023/10/20 04:27:05;;;;;;;;;;;13.20;97.90;;;;;;5119736;27;19958;-70
2023/10/20 04:29:47;;;;;;;;;;;13.20;97.90;;;;;;5113771;27;19944;-70
2023/10/20 04:44:49;;;;;;;;;;;13.20;97.90;;;;;;5087223;28;19959;-70
2023/10/20 04:57:53;;;;;;;;;;;13.20;97.90;;;;;;5112307;28;19968;-70
2023/10/20 05:00:36;;;;;;;;;;;13.20;98.00;;;;;;5099819;27;19920;-70
2023/10/20 05:05:34;;;;;;;;;;;13.20;97.90;;;;;;5111672;28;19914;-70
2023/10/20 05:08:32;;;;;;;;;;;13.20;98.00;;;;;;5117493;27;19959;-70
2023/10/20 05:10:52;;;;;;;;;;;13.20;97.90;;;;;;5110252;27;19931;-70
2023/10/20 05:13:19;;;;;;;;;;;13.20;98.00;;;;;;5113234;27;20264;-70
2023/10/20 05:15:45;;;;;;;;;;;13.20;97.90;;;;;;5113519;27;19912;-70
2023/10/20 05:18:11;;;;;;;;;;;13.30;98.00;;;;;;5103873;27;19923;-70
2023/10/20 05:20:41;;;;;;;;;;;13.20;97.90;;;;;;5110362;28;19907;-70
2023/10/20 05:23:06;;;;;;;;;;;13.30;98.10;;;;;;5111279;28;19912;-70
2023/10/20 05:25:32;;;;;;;;;;;13.30;98.00;;;;;;5101137;28;19915;-70
2023/10/20 05:27:59;;;;;;;;;;;13.30;98.10;;;;;;5119308;27;19981;-70
2023/10/20 05:30:25;;;;;;;;;;;13.20;98.10;;;;;;5116253;27;20392;-71
2023/10/20 05:32:51;;;;;;;;;;;13.30;98.20;;;;;;5106214;28;19991;-71
2023/10/20 05:35:17;;;;;;;;;;;13.30;98.10;;;;;;5105956;28;20356;-71
2023/10/20 05:37:42;;;;;;;;;;;13.30;98.00;;;;;;5110382;28;19919;-71
2023/10/20 05:40:08;;;;;;;;;;;13.30;98.10;;;;;;5110986;28;20006;-71
2023/10/20 05:42:33;;;;;;;;;;;13.30;98.10;;;;;;5110816;28;20416;-71
2023/10/20 05:45:02;;;;;;;;;;;13.30;98.20;;;;;;5110605;28;19919;-71
2023/10/20 05:47:31;;;;;;;;;;;13.30;98.20;;;;;;5100672;27;19912;-71
2023/10/20 05:49:57;;;;;;;;;;;13.30;98.20;;;;;;5110736;28;20003;-70
2023/10/20 05:52:23;;;;;;;;;;;13.30;98.20;;;;;;5108927;28;20373;-70
2023/10/20 05:54:49;;;;;;;;;;;13.30;98.10;;;;;;5114603;27;19908;-70
2023/10/20 05:57:15;;;;;;;;;;;13.30;98.00;;;;;;5127948;27;20368;-70
2023/10/20 05:59:41;;;;;;;;;;;13.30;98.20;;;;;;5109742;27;19920;-70
2023/10/20 06:02:07;;;;;;;;;;;13.30;98.20;;;;;;5110492;27;19955;-70
2023/10/20 06:04:36;;;;;;;;;;;13.30;98.10;;;;;;5109703;28;19907;-70
2023/10/20 06:07:01;;;;;;;;;;;13.30;98.10;;;;;;5109159;28;19960;-70
2023/10/20 06:09:27;;;;;;;;;;;13.30;98.00;;;;;;5110704;27;19920;-70
2023/10/20 06:11:56;;;;;;;;;;;13.30;98.10;;;;;;5109952;27;19952;-70
2023/10/20 06:14:23;;;;;;;;;;;13.40;98.10;;;;;;5109226;28;19908;-70
2023/10/20 06:16:49;;;;;;;;;;;13.40;98.10;;;;;;5109818;28;19912;-70
2023/10/20 06:19:15;;;;;;;;;;;13.30;98.10;;;;;;5109720;28;20318;-70
2023/10/20 06:21:42;;;;;;;;;;;13.40;98.20;;;;;;5109685;28;19951;-70
2023/10/20 06:24:08;;;;;;;;;;;13.30;98.10;;;;;;5109848;28;19911;-70
2023/10/20 06:26:33;;;;;;;;;;;13.30;98.10;;;;;;5109739;28;19911;-70
2023/10/20 06:28:59;;;;;;;;;;;13.40;98.00;;;;;;5108168;28;19911;-70
2023/10/20 06:36:38;;;;;;;;;;;13.40;98.10;;;;;;5117920;27;20011;-70
2023/10/20 06:39:04;;;;;;;;;;;13.40;98.10;;;;;;5109395;28;19911;-70
2023/10/20 06:41:29;;;;;;;;;;;13.40;98.20;;;;;;5107723;28;19934;-70
2023/10/20 06:43:55;;;;;;;;;;;13.40;98.30;;;;;;5109610;28;19911;-70
2023/10/20 06:46:21;;;;;;;;;;;13.40;98.20;;;;;;5109484;28;19908;-70
2023/10/20 06:48:47;;;;;;;;;;;13.40;98.20;;;;;;5109357;28;19957;-70
2023/10/20 06:51:13;;;;;;;;;;;13.40;98.20;;;;;;5108342;28;19927;-70
2023/10/20 06:53:39;;;;;;;;;;;13.40;98.30;;;;;;5098889;28;20293;-70
2023/10/20 06:56:05;;;;;;;;;;;13.40;98.30;;;;;;5094371;27;19909;-70
2023/10/20 06:58:31;;;;;;;;;;;13.40;98.20;;;;;;5097890;28;19919;-70
2023/10/20 07:00:56;;;;;;;;;;;13.40;98.40;;;;;;5112906;27;19915;-70
2023/10/20 07:03:22;;;;;;;;;;;13.40;98.30;;;;;;5109067;28;19908;-70
2023/10/20 07:05:47;;;;;;;;;;;13.40;98.40;;;;;;5111400;28;19914;-70
2023/10/20 07:08:13;;;;;;;;;;;13.40;98.40;;;;;;5107660;28;19907;-70
2023/10/20 07:10:39;;;;;;;;;;;13.40;98.40;;;;;;5107679;28;19911;-70
2023/10/20 07:13:08;;;;;;;;;;;13.40;98.30;;;;;;5109225;28;19912;-70
2023/10/20 07:15:34;;;;;;;;;;;13.40;98.40;;;;;;5109439;28;19919;-70
2023/10/20 07:18:00;;;;;;;;;;;13.40;98.30;;;;;;5116983;27;19973;-70
2023/10/20 07:20:26;;;;;;;;;;;13.40;98.30;;;;;;5112050;28;19916;-70
2023/10/20 07:22:52;;;;;;;;;;;13.40;98.30;;;;;;5113454;28;20249;-70
2023/10/20 07:25:17;;;;;;;;;;;13.40;98.40;;;;;;5113470;27;19978;-70
2023/10/20 07:27:43;;;;;;;;;;;13.40;98.40;;;;;;5112973;27;20363;-70
2023/10/20 07:30:10;;;;;;;;;;;13.40;98.40;;;;;;5116137;27;19931;-70
2023/10/20 07:32:36;;;;;;;;;;;13.40;98.40;;;;;;5108855;27;19912;-70
2023/10/20 07:35:03;;;;;;;;;;;13.40;98.40;;;;;;5112185;27;19919;-70
2023/10/20 07:37:29;;;;;;;;;;;13.40;98.50;;;;;;5120014;27;19998;-70
2023/10/20 07:39:54;;;;;;;;;;;13.40;98.60;;;;;;5116964;27;19994;-70
2023/10/20 07:42:22;;;;;;;;;;;13.40;98.40;;;;;;5123374;27;19947;-70
2023/10/20 07:44:48;;;;;;;;;;;13.40;98.50;;;;;;5107636;28;19920;-70
2023/10/20 07:47:14;;;;;;;;;;;13.40;98.40;;;;;;5107610;28;19912;-70
2023/10/20 07:49:40;;;;;;;;;;;13.40;98.30;;;;;;5128406;27;19919;-70
2023/10/20 07:52:05;;;;;;;;;;;13.40;98.50;;;;;;5111838;28;20003;-70
2023/10/20 07:54:31;;;;;;;;;;;13.40;98.50;;;;;;5111313;28;19907;-70
2023/10/20 07:56:56;;;;;;;;;;;13.40;98.50;;;;;;5111777;28;20284;-70
2023/10/20 07:59:22;;;;;;;;;;;13.40;98.50;;;;;;5111008;28;19920;-70
2023/10/20 08:01:47;;;;;;;;;;;13.40;98.60;;;;;;5115872;27;20002;-70
2023/10/20 08:04:13;;;;;;;;;;;13.40;98.50;;;;;;5107673;27;19915;-70
2023/10/20 08:06:38;;;;;;;;;;;13.40;98.50;;;;;;5111171;28;19955;-70
2023/10/20 08:09:04;;;;;;;;;;;13.40;98.50;;;;;;5111358;28;19923;-70
2023/10/20 08:11:30;;;;;;;;;;;13.40;98.50;;;;;;5119545;27;19912;-70
2023/10/20 08:13:55;;;;;;;;;;;13.50;98.60;;;;;;5111350;28;19955;-70
2023/10/20 08:16:21;;;;;;;;;;;13.40;98.60;;;;;;5111306;28;19980;-70
2023/10/20 08:18:47;;;;;;;;;;;13.50;98.70;;;;;;5107140;28;19924;-70
2023/10/20 08:21:14;;;;;;;;;;;13.40;98.60;;;;;;5109634;28;20380;-70
2023/10/20 08:23:40;;;;;;;;;;;13.50;98.60;;;;;;5103444;27;19960;-70
2023/10/20 08:26:05;;;;;;;;;;;13.50;98.70;;;;;;5111570;28;19915;-70
2023/10/20 08:28:31;;;;;;;;;;;13.40;98.60;;;;;;5115751;27;19912;-70
2023/10/20 08:31:10;;;;;;;;;;;13.50;98.60;;;;;;5110492;27;20309;-70
2023/10/20 08:33:35;;;;;;;;;;;13.40;98.60;;;;;;5102553;28;19919;-70
2023/10/20 08:36:11;;;;;;;;;;;13.40;98.60;;;;;;5111326;28;19912;-70
2023/10/20 08:38:38;;;;;;;;;;;13.50;98.60;;;;;;5113157;27;19908;-70
2023/10/20 08:41:10;;;;;;;;;;;13.50;98.50;;;;;;5111051;27;19909;-70
2023/10/20 08:43:37;;;;;;;;;;;13.50;98.80;;;;;;5115927;27;19915;-70
2023/10/20 08:46:02;;;;;;;;;;;13.50;98.70;;;;;;5105383;28;19912;-70
2023/10/20 08:48:28;;;;;;;;;;;13.50;98.70;;;;;;5100198;28;19984;-70
2023/10/20 08:50:54;;;;;;;;;;;13.50;98.60;;;;;;5110939;28;19915;-70
2023/10/20 08:53:20;;;;;;;;;;;13.40;98.70;;;;;;5105930;28;19912;-70
2023/10/20 08:55:46;;;;;;;;;;;13.50;98.60;;;;;;5110322;28;19915;-70
2023/10/20 08:58:12;;;;;;;;;;;13.50;98.60;;;;;;5110932;28;19923;-70
2023/10/20 09:00:37;;;;;;;;;;;13.50;98.70;;;;;;5105344;28;20006;-70
2023/10/20 09:03:03;;;;;;;;;;;13.50;98.70;;;;;;5111237;28;19918;-70
2023/10/20 09:05:28;;;;;;;;;;;13.50;98.70;;;;;;5111053;28;19915;-70
2023/10/20 09:07:55;;;;;;;;;;;13.50;98.70;;;;;;5111156;28;20388;-70
2023/10/20 09:10:20;;;;;;;;;;;13.50;98.70;;;;;;5114184;27;19911;-70
2023/10/20 09:12:46;;;;;;;;;;;13.50;98.70;;;;;;5111370;28;20252;-70
2023/10/20 09:15:11;;;;;;;;;;;13.50;98.70;;;;;;5109852;28;19908;-70
2023/10/20 09:17:37;;;;;;;;;;;13.50;98.70;;;;;;5110044;28;19923;-70
2023/10/20 09:20:04;;;;;;;;;;;13.50;98.80;;;;;;5111015;28;19919;-70
2023/10/20 09:22:29;;;;;;;;;;;13.50;98.80;;;;;;5110661;28;19911;-70
2023/10/20 09:24:55;;;;;;;;;;;13.60;98.80;;;;;;5111126;28;20006;-70
2023/10/20 09:27:22;;;;;;;;;;;13.50;98.70;;;;;;5110421;28;20022;-70
2023/10/20 09:29:48;;;;;;;;;;;13.50;98.70;;;;;;5112219;27;19927;-70
2023/10/20 09:32:13;;;;;;;;;;;13.50;98.70;;;;;;5115502;27;19908;-70
2023/10/20 09:34:39;;;;;;;;;;;13.60;98.70;;;;;;5110549;28;20348;-70
2023/10/20 09:37:05;;;;;;;;;;;13.50;98.80;;;;;;5106560;28;20014;-70
2023/10/20 09:39:37;;;;;;;;;;;13.60;98.80;;;;;;5106823;28;19912;-70
2023/10/20 09:42:05;;;;;;;;;;;13.50;98.80;;;;;;5103132;28;19908;-70
2023/10/20 09:44:36;;;;;;;;;;;13.60;98.80;;;;;;5106604;28;19947;-70
2023/10/20 09:47:11;;;;;;;;;;;13.60;98.70;;;;;;5124668;27;20251;-70
2023/10/20 09:49:39;;;;;;;;;;;13.60;98.70;;;;;;5108555;28;19912;-70
2023/10/20 09:52:05;;;;;;;;;;;13.60;98.80;;;;;;5101440;27;20003;-70
2023/10/20 09:54:32;;;;;;;;;;;13.60;98.80;;;;;;5104562;28;20320;-70
2023/10/20 09:56:58;;;;;;;;;;;13.60;98.80;;;;;;5109849;28;20376;-70
2023/10/20 09:59:24;;;;;;;;;;;13.60;98.80;;;;;;5107967;28;19943;-70
2023/10/20 10:01:51;;;;;;;;;;;13.60;98.80;;;;;;5109380;28;19907;-70
2023/10/20 10:04:23;;;;;;;;;;;13.60;98.80;;;;;;5101768;27;19908;-70
2023/10/20 10:06:49;;;;;;;;;;;13.60;98.80;;;;;;5093752;27;19914;-70
2023/10/20 10:09:15;;;;;;;;;;;13.60;98.80;;;;;;5109364;27;19939;-70
2023/10/20 10:11:44;;;;;;;;;;;13.60;98.80;;;;;;5107838;28;19915;-70
2023/10/20 10:14:17;;;;;;;;;;;13.60;98.90;;;;;;5094060;28;19912;-70
2023/10/20 10:16:50;;;;;;;;;;;13.60;98.80;;;;;;5117237;27;20027;-70
2023/10/20 10:19:17;;;;;;;;;;;13.60;98.80;;;;;;5109181;28;19958;-70
2023/10/20 10:21:42;;;;;;;;;;;13.60;98.80;;;;;;5107976;28;19985;-70
2023/10/20 10:24:17;;;;;;;;;;;13.60;98.90;;;;;;5109379;28;19915;-70
2023/10/20 10:26:59;;;;;;;;;;;13.60;98.90;;;;;;5109558;28;20272;-70
2023/10/20 10:29:44;;;;;;;;;;;13.60;98.90;;;;;;5108970;28;19911;-70
2023/10/20 10:32:10;;;;;;;;;;;13.60;98.80;;;;;;5109110;27;19908;-70
2023/10/20 10:34:45;;;;;;;;;;;13.60;99.10;;;;;;5108559;27;19957;-70
2023/10/20 10:37:11;;;;;;;;;;;13.60;98.90;;;;;;5108981;28;19916;-70
2023/10/20 10:39:37;;;;;;;;;;;13.60;98.90;;;;;;5117134;27;19960;-70
2023/10/20 10:42:03;;;;;;;;;;;13.60;98.90;;;;;;5108872;28;20018;-70
2023/10/20 10:44:33;;;;;;;;;;;13.60;98.90;;;;;;5108698;28;19997;-70
2023/10/20 10:46:59;;;;;;;;;;;13.60;98.90;;;;;;5106888;28;20457;-70
2023/10/20 10:49:24;;;;;;;;;;;13.60;98.90;;;;;;5100359;27;19911;-70
2023/10/20 10:51:52;;;;;;;;;;;13.70;98.90;;;;;;5104856;28;19912;-70
2023/10/20 10:54:18;;;;;;;;;;;13.70;99.00;;;;;;5100187;28;19912;-70
2023/10/20 10:56:44;;;;;;;;;;;13.60;99.00;;;;;;5100130;27;19926;-70
2023/10/20 10:59:10;;;;;;;;;;;13.70;99.00;;;;;;5100306;28;20294;-70
2023/10/20 11:01:38;;;;;;;;;;;13.70;99.00;;;;;;5103113;28;19918;-70
2023/10/20 11:04:04;;;;;;;;;;;13.70;99.10;;;;;;5110033;27;19912;-70
2023/10/20 11:06:32;;;;;;;;;;;13.70;99.00;;;;;;5100061;28;19947;-70
2023/10/20 11:08:58;;;;;;;;;;;13.70;99.10;;;;;;5098536;28;19947;-70
2023/10/20 11:11:25;;;;;;;;;;;13.70;99.60;;;;;;5099835;28;20329;-70
2023/10/20 11:13:51;;;;;;;;;;;13.70;99.10;;;;;;5100693;28;19977;-70
2023/10/20 11:16:16;;;;;;;;;;;13.70;99.10;;;;;;5108379;28;20571;-70
2023/10/20 11:18:45;;;;;;;;;;;13.70;99.10;;;;;;5095210;28;21225;-70
2023/10/20 11:21:11;;;;;;;;;;;13.70;99.10;;;;;;5099260;28;20613;-70
2023/10/20 11:23:37;;;;;;;;;;;13.70;99.10;;;;;;5106877;28;19922;-70
2023/10/20 11:26:12;;;;;;;;;;;13.80;99.30;;;;;;5108488;28;20367;-70
2023/10/20 11:28:38;;;;;;;;;;;13.80;99.30;;;;;;5096879;28;19912;-70
2023/10/20 11:31:04;;;;;;;;;;;13.70;99.20;;;;;;5116829;27;20661;-70
2023/10/20 11:33:29;;;;;;;;;;;13.70;99.00;;;;;;5110495;27;19971;-70
2023/10/20 11:35:59;;;;;;;;;;;13.80;99.00;;;;;;5099897;28;19916;-70
2023/10/20 11:38:26;;;;;;;;;;;13.70;99.10;;;;;;5107659;28;19915;-70
2023/10/20 11:40:52;;;;;;;;;;;13.70;99.00;;;;;;5104085;28;19961;-70
2023/10/20 11:43:17;;;;;;;;;;;13.80;99.20;;;;;;5120589;27;20657;-70
2023/10/20 11:45:43;;;;;;;;;;;13.70;99.10;;;;;;5108909;27;19912;-70
2023/10/20 11:48:08;;;;;;;;;;;13.80;99.10;;;;;;5096120;28;19923;-70
2023/10/20 11:50:34;;;;;;;;;;;13.80;99.10;;;;;;5122509;27;19912;-70
2023/10/20 11:53:00;;;;;;;;;;;13.80;99.20;;;;;;5120385;28;20566;-70
2023/10/20 11:55:25;;;;;;;;;;;13.80;99.30;;;;;;5107359;28;19908;-70
2023/10/20 11:57:51;;;;;;;;;;;13.80;99.30;;;;;;5106241;28;19916;-70
2023/10/20 12:00:17;;;;;;;;;;;13.70;99.00;;;;;;5110804;28;19915;-70
2023/10/20 12:02:43;;;;;;;;;;;13.70;99.00;;;;;;5091759;27;19950;-70
2023/10/20 12:05:10;;;;;;;;;;;13.70;99.00;;;;;;5103002;28;19997;-70
2023/10/20 12:07:36;;;;;;;;;;;13.70;99.00;;;;;;5142908;27;20685;-70
2023/10/20 12:10:04;;;;;;;;;;;13.80;99.10;;;;;;5106607;28;19912;-70
2023/10/20 12:12:31;;;;;;;;;;;13.70;99.20;;;;;;5092620;28;20492;-70
2023/10/20 12:14:56;;;;;;;;;;;13.70;99.10;;;;;;5106768;28;20383;-70
2023/10/20 12:17:24;;;;;;;;;;;13.70;99.10;;;;;;5099468;28;19916;-70
2023/10/20 12:19:50;;;;;;;;;;;13.70;99.10;;;;;;5116654;27;20276;-70
2023/10/20 12:22:16;;;;;;;;;;;13.70;99.10;;;;;;5107393;27;19916;-70
2023/10/20 12:24:41;;;;;;;;;;;13.70;99.20;;;;;;5104201;27;20209;-70
2023/10/20 12:27:08;;;;;;;;;;;13.70;99.10;;;;;;5111217;27;20003;-70
2023/10/20 12:29:33;;;;;;;;;;;13.70;99.20;;;;;;5092865;28;19912;-70
2023/10/20 12:31:59;;;;;;;;;;;13.70;99.20;;;;;;5109420;27;19934;-70
2023/10/20 12:34:25;;;;;;;;;;;13.70;99.20;;;;;;5111482;28;20394;-70
2023/10/20 12:36:50;;;;;;;;;;;13.70;99.30;;;;;;5111334;28;20332;-70
2023/10/20 12:39:20;;;;;;;;;;;13.60;99.20;;;;;;5111067;28;19918;-70
2023/10/20 12:41:45;;;;;;;;;;;13.60;99.30;;;;;;5102543;27;19925;-70
2023/10/20 12:44:11;;;;;;;;;;;13.70;99.30;;;;;;5108691;28;19919;-70
2023/10/20 12:46:37;;;;;;;;;;;13.70;99.30;;;;;;5110613;27;19912;-70
2023/10/20 12:49:03;;;;;;;;;;;13.60;99.20;;;;;;5108382;28;19912;-70
2023/10/20 12:51:28;;;;;;;;;;;13.60;99.40;;;;;;5109155;28;20337;-70
2023/10/20 12:53:54;;;;;;;;;;;13.70;99.30;;;;;;5097514;28;20646;-70
2023/10/20 12:56:19;;;;;;;;;;;13.70;99.30;;;;;;5098779;27;19911;-70
2023/10/20 12:58:45;;;;;;;;;;;13.70;99.40;;;;;;5113377;27;19959;-70
2023/10/20 13:01:10;;;;;;;;;;;13.60;99.30;;;;;;5129264;27;20004;-70
2023/10/20 13:03:36;;;;;;;;;;;13.60;99.30;;;;;;5103790;27;19919;-70
2023/10/20 13:06:01;;;;;;;;;;;13.70;99.30;;;;;;5108090;27;19907;-70
2023/10/20 13:08:27;;;;;;;;;;;13.60;99.30;;;;;;5113436;27;19931;-70
2023/10/20 13:10:53;;;;;;;;;;;13.60;99.30;;;;;;5106777;27;19912;-70
2023/10/20 13:13:18;;;;;;;;;;;13.60;99.30;;;;;;5098620;27;19919;-70
2023/10/20 13:15:44;;;;;;;;;;;13.60;99.30;;;;;;5099317;28;19907;-70
2023/10/20 13:18:13;;;;;;;;;;;13.60;99.40;;;;;;5098228;28;20011;-70
2023/10/20 13:20:40;;;;;;;;;;;13.60;99.50;;;;;;5100928;27;20329;-70
2023/10/20 13:23:06;;;;;;;;;;;13.60;99.40;;;;;;5104470;27;19916;-70
2023/10/20 13:25:31;;;;;;;;;;;13.60;99.40;;;;;;5098414;28;19908;-70
2023/10/20 13:27:59;;;;;;;;;;;13.60;99.30;;;;;;5103322;27;19994;-70
2023/10/20 13:30:24;;;;;;;;;;;13.60;99.60;;;;;;5108064;27;20034;-70
2023/10/20 13:32:50;;;;;;;;;;;13.60;99.40;;;;;;5110293;28;20007;-70
2023/10/20 13:35:16;;;;;;;;;;;13.60;99.40;;;;;;5110242;28;19965;-70
2023/10/20 13:37:42;;;;;;;;;;;13.60;99.40;;;;;;5103209;27;20276;-70
2023/10/20 13:40:09;;;;;;;;;;;13.50;99.40;;;;;;5107891;27;20595;-70
2023/10/20 13:42:35;;;;;;;;;;;13.60;99.40;;;;;;5109541;28;19907;-70
2023/10/20 13:45:05;;;;;;;;;;;13.50;99.40;;;;;;5103366;28;20288;-70
2023/10/20 13:47:31;;;;;;;;;;;13.60;99.50;;;;;;5099471;28;19998;-70
2023/10/20 13:49:57;;;;;;;;;;;13.60;99.60;;;;;;5103011;28;20006;-70
2023/10/20 13:52:23;;;;;;;;;;;13.50;99.40;;;;;;5117835;27;19911;-70
2023/10/20 13:54:48;;;;;;;;;;;13.50;99.40;;;;;;5107994;28;19911;-70
2023/10/20 13:57:14;;;;;;;;;;;13.50;99.50;;;;;;5109992;28;19915;-70
2023/10/20 13:59:39;;;;;;;;;;;13.60;99.50;;;;;;5118150;27;19970;-70
2023/10/20 14:02:05;;;;;;;;;;;13.50;99.50;;;;;;5115949;27;19912;-70
2023/10/20 14:04:30;;;;;;;;;;;13.50;99.50;;;;;;5109608;28;19908;-70
2023/10/20 14:06:57;;;;;;;;;;;13.50;99.50;;;;;;5110051;28;19908;-70
2023/10/20 14:09:22;;;;;;;;;;;13.50;99.50;;;;;;5109410;28;19912;-70
2023/10/20 14:11:49;;;;;;;;;;;13.50;99.40;;;;;;5118156;27;20332;-70
2023/10/20 14:14:15;;;;;;;;;;;13.50;99.50;;;;;;5110070;28;20019;-70
2023/10/20 14:16:41;;;;;;;;;;;13.50;99.50;;;;;;5109701;28;19920;-70
2023/10/20 14:19:07;;;;;;;;;;;13.50;99.50;;;;;;5109701;27;19972;-70
2023/10/20 14:21:32;;;;;;;;;;;13.50;99.50;;;;;;5109485;27;20387;-70
2023/10/20 14:23:58;;;;;;;;;;;13.50;99.40;;;;;;5109285;28;19908;-70
2023/10/20 14:26:24;;;;;;;;;;;13.50;99.40;;;;;;5117472;27;20306;-70
2023/10/20 14:28:49;;;;;;;;;;;13.50;99.40;;;;;;5112190;27;19917;-70
2023/10/20 14:31:15;;;;;;;;;;;13.50;99.50;;;;;;5116193;27;20280;-70
2023/10/20 14:33:40;;;;;;;;;;;13.50;99.50;;;;;;5117111;27;19919;-70
2023/10/20 14:36:12;;;;;;;;;;;13.50;99.50;;;;;;5117960;27;19918;-70
2023/10/20 14:38:37;;;;;;;;;;;13.50;99.50;;;;;;5108507;28;19916;-70
2023/10/20 14:41:04;;;;;;;;;;;13.50;99.40;;;;;;5109171;28;19915;-70
2023/10/20 14:43:32;;;;;;;;;;;13.50;99.40;;;;;;5117604;27;20618;-70